Time;durP1;ratioP1;P1;durP2;ratioP2;P2;SDS_P1;SDS_P2;PMS_P1;PMS_P2;Temp;Humidity;BMP_temperature;BMP_pressure;BME280_temperature;BME280_humidity;BME280_pressure;Samples;Min_cycle;Max_cycle;Signal;HPM_P1;HPM_P2
2023/07/23 00:07:45;;;;;;;30.67;17.48;;;;;;;;;;21008917;28;20082;-64
2023/07/23 00:17:46;;;;;;;30.25;18.52;;;;;;;;;;21006905;28;20127;-64
2023/07/23 00:27:47;;;;;;;33.38;17.23;;;;;;;;;;21007298;28;20048;-64
2023/07/23 00:37:48;;;;;;;28.63;17.17;;;;;;;;;;21006095;28;20044;-64
2023/07/23 00:47:49;;;;;;;29.70;16.98;;;;;;;;;;21004314;28;20056;-63
2023/07/23 00:57:50;;;;;;;26.90;17.42;;;;;;;;;;21004899;28;20048;-64
2023/07/23 01:07:52;;;;;;;27.17;17.15;;;;;;;;;;21004323;28;20444;-64
2023/07/23 01:17:53;;;;;;;31.63;17.33;;;;;;;;;;21003548;28;20496;-64
2023/07/23 01:27:54;;;;;;;30.08;17.17;;;;;;;;;;21000982;28;20047;-64
2023/07/23 01:37:57;;;;;;;30.35;18.13;;;;;;;;;;21001756;28;20102;-63
2023/07/23 01:47:58;;;;;;;30.38;18.13;;;;;;;;;;20998375;28;20091;-64
2023/07/23 01:57:59;;;;;;;35.15;19.80;;;;;;;;;;20998758;28;20131;-64
2023/07/23 02:08:00;;;;;;;39.60;22.80;;;;;;;;;;20998322;28;20101;-63
2023/07/23 02:18:01;;;;;;;38.63;20.90;;;;;;;;;;20996461;28;20139;-64
2023/07/23 02:28:02;;;;;;;29.98;17.90;;;;;;;;;;20997385;28;20044;-63
2023/07/23 02:38:04;;;;;;;34.13;20.40;;;;;;;;;;20996581;28;20063;-64
2023/07/23 02:48:06;;;;;;;34.33;20.67;;;;;;;;;;20994913;28;20091;-64
2023/07/23 02:58:07;;;;;;;33.65;20.17;;;;;;;;;;20995598;28;20079;-64
2023/07/23 03:08:08;;;;;;;36.60;21.70;;;;;;;;;;20995539;28;20128;-65
2023/07/23 03:18:09;;;;;;;38.47;21.25;;;;;;;;;;20995406;28;20123;-63
2023/07/23 03:28:10;;;;;;;39.45;21.63;;;;;;;;;;20994740;28;20101;-63
2023/07/23 03:38:11;;;;;;;39.97;22.40;;;;;;;;;;20993186;28;20105;-63
2023/07/23 03:48:12;;;;;;;38.53;22.48;;;;;;;;;;20993077;28;20094;-63
2023/07/23 03:58:13;;;;;;;43.50;22.83;;;;;;;;;;20992757;28;20079;-64
2023/07/23 04:08:15;;;;;;;43.85;24.52;;;;;;;;;;20993463;28;20040;-63
2023/07/23 04:18:17;;;;;;;45.50;25.05;;;;;;;;;;21005745;28;20189;-64
2023/07/23 04:28:18;;;;;;;52.55;29.10;;;;;;;;;;21007408;28;20048;-63
2023/07/23 04:38:19;;;;;;;54.78;28.90;;;;;;;;;;21006027;28;20049;-63
2023/07/23 04:48:20;;;;;;;52.70;28.75;;;;;;;;;;21005687;28;20486;-64
2023/07/23 04:58:22;;;;;;;53.65;27.75;;;;;;;;;;21004843;28;20045;-64
2023/07/23 05:08:23;;;;;;;50.30;27.90;;;;;;;;;;21004022;28;20497;-63
2023/07/23 05:18:24;;;;;;;47.13;26.80;;;;;;;;;;21001876;28;20040;-63
2023/07/23 05:28:25;;;;;;;46.92;26.75;;;;;;;;;;21000285;28;20040;-63
2023/07/23 05:38:26;;;;;;;47.55;26.90;;;;;;;;;;21001112;28;20416;-65
2023/07/23 05:48:28;;;;;;;49.50;27.52;;;;;;;;;;21000948;28;20070;-64
2023/07/23 05:58:29;;;;;;;53.90;28.58;;;;;;;;;;20999642;28;20478;-63
2023/07/23 06:08:30;;;;;;;49.88;28.20;;;;;;;;;;20997606;28;20045;-64
2023/07/23 06:18:35;;;;;;;60.83;30.02;;;;;;;;;;20998053;28;20043;-63
2023/07/23 06:28:36;;;;;;;51.75;29.75;;;;;;;;;;20997584;28;20161;-64
2023/07/23 06:38:37;;;;;;;51.20;27.55;;;;;;;;;;20994915;28;20085;-63
2023/07/23 06:48:38;;;;;;;48.95;27.13;;;;;;;;;;20997198;28;20059;-63
2023/07/23 06:58:39;;;;;;;44.63;25.40;;;;;;;;;;20996884;28;20044;-63
2023/07/23 07:08:41;;;;;;;46.25;25.25;;;;;;;;;;20996402;28;20477;-63
2023/07/23 07:18:42;;;;;;;41.45;24.33;;;;;;;;;;20996088;28;20056;-64
2023/07/23 07:28:43;;;;;;;37.85;21.42;;;;;;;;;;20994288;28;20041;-64
2023/07/23 07:38:44;;;;;;;42.45;22.23;;;;;;;;;;20994977;28;20044;-64
2023/07/23 07:48:46;;;;;;;26.65;14.73;;;;;;;;;;21002608;28;20048;-64
2023/07/23 07:58:47;;;;;;;22.10;11.75;;;;;;;;;;21009639;28;20079;-64
2023/07/23 08:08:50;;;;;;;20.95;10.27;;;;;;;;;;21008858;28;20478;-64
2023/07/23 08:18:51;;;;;;;23.35;10.70;;;;;;;;;;21008168;28;20045;-64
2023/07/23 08:28:54;;;;;;;17.50;10.15;;;;;;;;;;21007196;28;20144;-64
2023/07/23 08:38:56;;;;;;;22.33;10.45;;;;;;;;;;21005256;28;20140;-66
2023/07/23 08:48:57;;;;;;;17.33;10.75;;;;;;;;;;21005464;28;20106;-65
2023/07/23 08:58:58;;;;;;;25.45;13.18;;;;;;;;;;21004383;28;20500;-64
2023/07/23 09:09:10;;;;;;;24.98;13.10;;;;;;;;;;21004434;28;20048;-65
2023/07/23 09:19:12;;;;;;;23.58;13.20;;;;;;;;;;21003186;28;20040;-65
2023/07/23 09:29:13;;;;;;;21.48;13.00;;;;;;;;;;21001302;28;20075;-65
2023/07/23 09:39:14;;;;;;;26.08;13.15;;;;;;;;;;21000272;28;20044;-65
2023/07/23 09:49:16;;;;;;;26.13;14.20;;;;;;;;;;20999463;28;20040;-65
2023/07/23 09:59:18;;;;;;;22.60;13.20;;;;;;;;;;20999796;28;20513;-64
2023/07/23 10:09:19;;;;;;;22.40;13.68;;;;;;;;;;20996020;28;20045;-64
2023/07/23 10:19:20;;;;;;;23.25;13.35;;;;;;;;;;20997870;28;20040;-64
2023/07/23 10:29:22;;;;;;;21.77;13.02;;;;;;;;;;20995954;28;20060;-65
2023/07/23 10:39:23;;;;;;;21.02;12.38;;;;;;;;;;20996452;28;20048;-65
2023/07/23 10:49:27;;;;;;;26.02;16.92;;;;;;;;;;20995530;28;20053;-65
2023/07/23 10:59:28;;;;;;;28.10;16.27;;;;;;;;;;20994408;28;20044;-65
2023/07/23 11:09:34;;;;;;;23.70;15.32;;;;;;;;;;20995504;28;20041;-65
2023/07/23 11:19:35;;;;;;;25.00;15.15;;;;;;;;;;20997020;28;20051;-65
2023/07/23 11:29:36;;;;;;;27.48;18.50;;;;;;;;;;21011662;28;20397;-65
2023/07/23 11:39:47;;;;;;;29.85;18.15;;;;;;;;;;21009596;28;20086;-65
2023/07/23 11:49:48;;;;;;;26.50;17.52;;;;;;;;;;21008923;28;20040;-64
2023/07/23 11:59:49;;;;;;;31.88;19.33;;;;;;;;;;21008260;28;20045;-65
2023/07/23 12:09:51;;;;;;;34.50;20.25;;;;;;;;;;21008694;28;20040;-65
2023/07/23 12:19:52;;;;;;;29.63;18.35;;;;;;;;;;21008315;28;20045;-65
2023/07/23 12:29:53;;;;;;;34.03;18.98;;;;;;;;;;21007119;28;20072;-65
2023/07/23 12:39:55;;;;;;;29.52;17.80;;;;;;;;;;21005148;28;20053;-65
2023/07/23 12:50:00;;;;;;;23.08;15.90;;;;;;;;;;21005598;28;20481;-65
2023/07/23 13:00:01;;;;;;;28.08;18.73;;;;;;;;;;21007382;28;20387;-66
2023/07/23 13:10:03;;;;;;;27.15;16.73;;;;;;;;;;21002355;28;20036;-65
2023/07/23 13:20:05;;;;;;;29.95;18.20;;;;;;;;;;21003230;28;20044;-70
2023/07/23 13:30:07;;;;;;;28.10;18.52;;;;;;;;;;21001917;28;20158;-65
2023/07/23 13:40:08;;;;;;;29.20;18.52;;;;;;;;;;20996383;28;20052;-67
2023/07/23 13:50:09;;;;;;;27.27;18.42;;;;;;;;;;20991544;28;20128;-65
2023/07/23 14:00:12;;;;;;;29.48;19.00;;;;;;;;;;20999833;28;20048;-66
2023/07/23 14:10:13;;;;;;;31.27;20.27;;;;;;;;;;20999465;28;20545;-66
2023/07/23 14:20:15;;;;;;;31.80;18.92;;;;;;;;;;20997413;28;20060;-66
2023/07/23 14:30:19;;;;;;;31.48;18.83;;;;;;;;;;20997973;28;20044;-65
2023/07/23 14:40:20;;;;;;;28.57;19.43;;;;;;;;;;20995679;28;20056;-66
2023/07/23 14:50:21;;;;;;;28.85;19.75;;;;;;;;;;20996022;28;20297;-65
2023/07/23 15:00:23;;;;;;;25.05;18.00;;;;;;;;;;20994624;28;20436;-65
2023/07/23 15:10:24;;;;;;;26.42;18.10;;;;;;;;;;20994745;28;20072;-67
2023/07/23 15:20:25;;;;;;;28.98;19.38;;;;;;;;;;20994200;28;20048;-65
2023/07/23 15:30:26;;;;;;;25.08;18.02;;;;;;;;;;20992800;28;20501;-68
2023/07/23 15:40:27;;;;;;;24.95;17.40;;;;;;;;;;20993684;28;20494;-67
2023/07/23 15:50:29;;;;;;;26.02;17.45;;;;;;;;;;20986731;28;20482;-67
2023/07/23 16:00:30;;;;;;;27.10;18.63;;;;;;;;;;20987438;28;20044;-66
2023/07/23 16:10:31;;;;;;;25.15;17.77;;;;;;;;;;21001437;28;20036;-67
2023/07/23 16:20:32;;;;;;;24.15;16.75;;;;;;;;;;21006962;28;20044;-67
2023/07/23 16:30:33;;;;;;;26.30;16.98;;;;;;;;;;21006071;28;20056;-68
2023/07/23 16:40:35;;;;;;;23.65;15.32;;;;;;;;;;21006005;28;20064;-67
2023/07/23 16:50:36;;;;;;;23.70;16.48;;;;;;;;;;21006348;28;20584;-67
2023/07/23 17:00:37;;;;;;;22.70;16.13;;;;;;;;;;21005169;28;20040;-67
2023/07/23 17:10:38;;;;;;;23.67;16.35;;;;;;;;;;21003113;28;20044;-66
2023/07/23 17:20:41;;;;;;;31.73;18.83;;;;;;;;;;21002828;28;20075;-68
2023/07/23 17:30:42;;;;;;;24.33;15.82;;;;;;;;;;21002546;28;20587;-69
2023/07/23 17:40:43;;;;;;;28.33;18.58;;;;;;;;;;21000585;28;20059;-69
2023/07/23 17:50:44;;;;;;;23.52;16.27;;;;;;;;;;21000850;28;20560;-69
2023/07/23 18:00:45;;;;;;;25.95;16.67;;;;;;;;;;21001338;28;20052;-68
2023/07/23 18:10:46;;;;;;;28.45;17.88;;;;;;;;;;20999870;28;20055;-68
2023/07/23 18:20:48;;;;;;;23.85;15.88;;;;;;;;;;20998575;28;20045;-67
2023/07/23 18:30:57;;;;;;;23.70;16.88;;;;;;;;;;20996878;28;20047;-70
2023/07/23 18:40:59;;;;;;;22.58;15.57;;;;;;;;;;20997202;28;20426;-71
2023/07/23 18:51:00;;;;;;;19.67;12.85;;;;;;;;;;20997196;28;20163;-71
2023/07/23 19:01:01;;;;;;;18.00;12.95;;;;;;;;;;20996995;28;20135;-72
2023/07/23 19:11:02;;;;;;;19.13;13.27;;;;;;;;;;20996308;28;20045;-72
2023/07/23 19:21:03;;;;;;;17.10;11.85;;;;;;;;;;20994690;28;20041;-72
2023/07/23 19:31:04;;;;;;;19.67;12.15;;;;;;;;;;20994765;28;20543;-71
2023/07/23 19:41:06;;;;;;;19.92;11.50;;;;;;;;;;20997532;28;20518;-73
2023/07/23 19:51:07;;;;;;;18.45;10.45;;;;;;;;;;21010921;28;20091;-71
2023/07/23 20:01:08;;;;;;;15.55;11.02;;;;;;;;;;21010230;28;20045;-71
2023/07/23 20:11:11;;;;;;;13.23;9.70;;;;;;;;;;21009464;28;20036;-71
2023/07/23 20:21:12;;;;;;;13.95;9.77;;;;;;;;;;21026332;28;20097;-72
2023/07/23 20:31:16;;;;;;;12.65;9.13;;;;;;;;;;21026101;28;20080;-73
2023/07/23 20:41:18;;;;;;;14.77;9.00;;;;;;;;;;21005932;28;20056;-72
2023/07/23 20:51:19;;;;;;;14.30;9.65;;;;;;;;;;21006020;28;20048;-72
2023/07/23 21:01:20;;;;;;;12.18;8.45;;;;;;;;;;21004204;28;20045;-72
2023/07/23 21:11:21;;;;;;;12.75;8.60;;;;;;;;;;21005070;28;20040;-73
2023/07/23 21:21:22;;;;;;;12.40;8.77;;;;;;;;;;21004225;28;20048;-72
2023/07/23 21:31:23;;;;;;;12.10;8.70;;;;;;;;;;21004818;28;20418;-72
2023/07/23 21:41:24;;;;;;;15.82;9.00;;;;;;;;;;21002093;28;20489;-72
2023/07/23 21:51:26;;;;;;;13.18;8.15;;;;;;;;;;21002365;28;20420;-71
2023/07/23 22:01:27;;;;;;;13.95;8.65;;;;;;;;;;21000692;28;20044;-69
2023/07/23 22:11:28;;;;;;;10.30;7.10;;;;;;;;;;20998489;28;20048;-69
2023/07/23 22:21:29;;;;;;;11.05;7.28;;;;;;;;;;20998821;28;20101;-68
2023/07/23 22:31:30;;;;;;;11.98;7.65;;;;;;;;;;20998305;28;20098;-68
2023/07/23 22:41:31;;;;;;;10.45;6.53;;;;;;;;;;20997278;28;20539;-68
2023/07/23 22:51:32;;;;;;;12.30;8.10;;;;;;;;;;20995910;28;20186;-67
2023/07/23 23:01:33;;;;;;;9.50;5.97;;;;;;;;;;20997083;28;20047;-69
2023/07/23 23:11:35;;;;;;;10.32;6.13;;;;;;;;;;20996485;28;20044;-67
2023/07/23 23:21:36;;;;;;;9.30;6.43;;;;;;;;;;21008074;28;20101;-69
2023/07/23 23:31:37;;;;;;;9.43;5.82;;;;;;;;;;21012520;28;20405;-68
2023/07/23 23:41:39;;;;;;;10.75;5.88;;;;;;;;;;21011325;28;20053;-67
2023/07/23 23:51:40;;;;;;;8.13;5.57;;;;;;;;;;21009924;28;20051;-68
